WEATHER DATA

YESTERDAY
Time Temp. Dewp. Hum. Wind dir Wind speed Wind gust Bar. 1h Prec. 24h Prec.
00:09 15 13 88 22 1.4 2.8 1011.6 0.0000 0.0000
00:19 15 13 88 16 1.1 2.8 1011.5 0.0000 0.0000
00:29 14.9 12.9 88 34 2.8 4.4 1011.5 0.0000 0.0000
00:40 14.9 12.9 88 33 1.9 3.9 1011.5 0.0000 0.0000
00:50 14.8 12.8 88 33 1.9 3.3 1011.6 0.0000 0.0000
00:59 14.7 12.7 88 38 1.9 3.1 1011.6 0.0000 0.0000
01:10 14.7 12.7 88 38 2.2 3.9 1011.6 0.0000 0.0000
01:20 14.6 12.6 88 54 2.2 4.2 1011.5 0.0000 0.0000
01:30 14.5 12.5 88 50 1.4 2.8 1011.4 0.0000 0.0000
01:40 14.5 12.5 88 33 1.4 2.8 1011.5 0.0000 0.0000
01:50 14.5 12.5 88 7 0.8 1.9 1011.5 0.0000 0.0000
02:00 14.4 12.4 88 18 1.1 2.2 1011.5 0.0000 0.0000
02:10 14.4 12.4 88 27 1.4 3.3 1011.5 0.0000 0.0000
02:20 14.4 12.4 88 10 0.8 2.2 1011.5 0.0000 0.0000
02:31 14.3 12.3 88 6 0.8 1.9 1011.5 0.0000 0.0000
02:41 14.3 12.3 88 348 0.8 1.9 1011.6 0.0000 0.0000
02:50 14.3 12.3 88 349 0.8 1.9 1011.8 0.0000 0.0000
03:01 14.3 12.3 88 337 0.3 1.4 1011.8 0.0000 0.0000
03:11 14.3 12.5 89 341 0.8 1.4 1011.8 0.0000 0.0000
03:21 14.3 12.5 89 334 0.3 1.4 1011.8 0.0000 0.0000
03:31 14.3 12.5 89 349 0.8 1.9 1011.8 0.0000 0.0000
03:41 14.3 12.5 89 355 0.8 1.4 1011.8 0.0000 0.0000
03:51 14.2 12.4 89 16 1.4 3.1 1011.8 0.0000 0.0000
04:01 14.1 12.3 89 5 1.1 3.1 1011.8 0.0000 0.0000
04:12 14 12 88 22 1.1 3.1 1011.8 0.0000 0.0000
04:22 14 12.2 89 25 1.9 3.1 1011.7 0.0000 0.0000
04:31 13.9 12.1 89 32 1.9 3.3 1011.7 0.0000 0.0000
04:41 13.9 12.1 89 30 2.2 3.9 1011.6 0.0000 0.0000
04:52 13.8 12 89 46 1.9 3.9 1011.7 0.0000 0.0000
05:02 13.7 12.1 90 30 1.4 2.8 1011.6 0.0000 0.0000
05:12 13.7 12.1 90 31 1.9 3.3 1011.7 0.0000 0.0000
05:22 13.7 12.1 90 28 1.9 3.9 1011.7 0.0000 0.0000
05:32 13.7 12.1 90 42 2.2 4.4 1011.8 0.0000 0.0000
05:42 13.6 12 90 36 1.4 3.9 1011.8 0.0000 0.0000
05:52 13.6 12.2 91 36 1.9 3.3 1011.8 0.0000 0.0000
06:03 13.7 12.3 91 40 2.2 4.2 1011.9 0.0000 0.0000
06:12 13.7 12.3 91 32 2.8 4.4 1011.9 0.0000 0.0000
06:22 13.7 12.3 91 28 2.8 4.2 1011.9 0.0000 0.0000
06:32 13.7 12.3 91 31 1.9 3.3 1011.9 0.0000 0.0000
06:43 13.7 12.3 91 28 1.9 3.1 1011.8 0.0000 0.0000
06:53 13.7 12.3 91 18 2.2 4.2 1011.9 0.0000 0.0000
07:03 13.7 12.3 91 23 1.9 3.9 1011.9 0.0000 0.0000
07:13 13.7 12.3 91 26 2.8 4.4 1012 0.0000 0.0000
07:23 13.7 12.3 91 20 2.8 5 1012 0.0000 0.0000
07:33 13.7 12.3 91 15 2.2 3.9 1012 0.0000 0.0000
07:43 13.7 12.3 91 23 1.4 2.8 1012.1 0.0000 0.0000
07:54 13.7 12.3 91 24 1.9 3.1 1012.2 0.0000 0.0000
08:03 13.7 12.3 91 24 1.9 3.3 1012.3 0.0000 0.0000
08:13 13.7 12.3 91 21 2.2 3.9 1012.4 0.0000 0.0000
08:24 13.7 12.3 91 23 1.4 3.1 1012.4 0.0000 0.0000
08:34 13.8 12.4 91 21 1.9 3.3 1012.4 0.0000 0.0000
08:44 13.8 12.4 91 30 2.2 4.2 1012.5 0.0000 0.0000
08:53 13.8 12.4 91 24 2.8 5 1012.5 0.0000 0.0000
09:04 13.8 12.4 91 21 2.8 5 1012.6 0.0000 0.0000
09:14 13.8 12.4 91 35 2.8 5 1012.6 0.0000 0.0000
09:24 13.9 12.5 91 31 2.8 5.8 1012.7 0.0000 0.0000
09:35 13.9 12.6 92 33 2.2 4.4 1012.8 0.0000 0.0000
09:44 14 12.6 91 30 3.1 5.3 1012.9 0.0000 0.0000
09:54 14 12.7 92 25 3.1 5.8 1012.9 0.0000 0.0000
10:04 14.1 12.8 92 24 3.3 5.8 1012.9 0.0000 0.0000
10:15 14.1 12.8 92 32 2.8 5.3 1013 0.0000 0.0000
10:25 14.3 13 92 34 3.1 5.8 1013.1 0.0000 0.0000
10:45 14.3 13 92 41 3.9 7.5 1013.2 0.0000 0.0000
10:55 14.4 13.1 92 35 4.2 7.2 1013.2 0.0000 0.0000
11:15 14.6 13.1 91 45 4.2 7.5 1013.3 0.0000 0.0000
11:25 14.7 13.2 91 40 4.2 8.1 1013.3 0.0000 0.0000
11:45 14.9 13.4 91 44 3.9 6.9 1013.3 0.0000 0.0000
11:55 15 13.5 91 46 3.9 6.1 1013.4 0.0000 0.0000
12:06 15.1 13.5 90 38 3.9 8.6 1013.4 0.0000 0.0000
12:15 15.1 13.5 90 44 3.3 5.8 1013.4 0.0000 0.0000
12:25 15 13.2 89 41 4.2 7.5 1013.4 0.0000 0.0000
12:36 15 13.2 89 40 3.9 8.6 1013.5 0.0000 0.0000
12:46 15 13.2 89 47 4.4 7.5 1013.5 0.0000 0.0000
12:56 15.1 13.3 89 59 4.2 7.5 1013.5 0.0000 0.0000
13:06 15.1 13.3 89 52 3.9 8.3 1013.5 0.0000 0.0000
13:16 15.2 13.4 89 53 4.2 6.4 1013.5 0.0000 0.0000
13:26 15.1 13.1 88 57 4.2 7.5 1013.5 0.0000 0.0000
13:36 15.1 13.1 88 57 4.4 8.3 1013.5 0.0000 0.0000
13:47 15.2 13.4 89 49 3.9 6.1 1013.5 0.0000 0.0000
13:56 15.3 13.3 88 49 5 8.1 1013.5 0.0000 0.0000
14:06 15.3 13.2 87 47 4.4 8.3 1013.5 0.0000 0.0000
14:16 15.3 13.2 87 54 4.2 8.3 1013.6 0.0000 0.0000
14:27 15.4 13.4 88 53 4.2 8.1 1013.6 0.0000 0.0000
14:37 15.4 13.2 87 54 3.3 6.1 1013.5 0.0000 0.0000
14:46 15.4 13.4 88 56 4.4 7.5 1013.5 0.0000 0.0000
14:57 15.5 13.5 88 61 3.3 6.9 1013.5 0.0000 0.0000
15:07 15.6 13.4 87 51 3.9 6.4 1013.5 0.0000 0.0000
15:17 15.6 13.4 87 50 3.9 6.4 1013.4 0.0000 0.0000
15:27 15.6 13.4 87 51 4.4 9.2 1013.4 0.0000 0.0000
15:37 15.6 13.3 86 51 4.2 7.2 1013.4 0.0000 0.0000
15:47 15.6 13.3 86 59 3.9 6.1 1013.5 0.0000 0.0000
15:57 15.6 13.3 86 54 3.9 6.1 1013.5 0.0000 0.0000
16:08 15.7 13.4 86 59 3.3 6.1 1013.4 0.0000 0.0000
16:18 15.7 13.2 85 51 3.9 6.4 1013.4 0.0000 0.0000
16:27 15.8 13.3 85 52 5 7.5 1013.3 0.0000 0.0000
16:37 16 13.3 84 53 4.2 6.9 1013.4 0.0000 0.0000
16:48 15.9 13.2 84 52 3.9 7.5 1013.4 0.0000 0.0000
16:58 15.8 12.9 83 50 3.9 6.9 1013.4 0.0000 0.0000
17:08 15.7 12.8 83 45 3.9 6.1 1013.4 0.0000 0.0000
17:18 15.7 12.8 83 47 3.9 7.5 1013.5 0.0000 0.0000
17:28 15.6 12.7 83 44 3.9 7.5 1013.5 0.0000 0.0000
17:38 15.5 12.6 83 45 3.1 6.1 1013.5 0.0000 0.0000
17:48 15.4 12.5 83 47 2.8 4.4 1013.5 0.0000 0.0000
17:59 15.4 12.7 84 58 2.8 6.1 1013.6 0.0000 0.0000
18:09 15.3 12.6 84 48 2.8 5 1013.6 0.0000 0.0000
18:18 15.2 12.5 84 50 2.2 4.4 1013.6 0.0000 0.0000
18:29 15.1 12.4 84 45 3.1 5 1013.6 0.0000 0.0000
18:39 15 12.3 84 43 2.2 4.2 1013.7 0.0000 0.0000
18:49 15 12.3 84 48 2.2 4.2 1013.8 0.0000 0.0000
18:58 14.9 12.2 84 45 2.2 3.9 1013.8 0.0000 0.0000
19:09 14.9 12.4 85 41 2.8 4.2 1013.8 0.0000 0.0000
19:19 14.8 12.3 85 49 1.9 3.9 1013.8 0.0000 0.0000
19:29 14.7 12.2 85 36 1.9 4.2 1013.9 0.0000 0.0000
19:39 14.7 12.2 85 37 2.2 4.4 1013.9 0.0000 0.0000
19:49 14.7 12 84 40 2.2 4.2 1013.9 0.0000 0.0000
19:59 14.6 12.1 85 42 2.2 4.4 1013.9 0.0000 0.0000
20:09 14.6 12.1 85 40 2.2 4.2 1013.9 0.0000 0.0000
20:20 14.6 12.1 85 45 2.2 4.4 1014 0.0000 0.0000
20:30 14.5 12 85 43 2.2 4.2 1014 0.0000 0.0000
20:39 14.5 12 85 43 2.2 4.4 1014 0.0000 0.0000
20:50 14.5 12 85 41 2.8 4.4 1014 0.0000 0.0000
21:00 14.4 11.9 85 37 2.8 5 1014 0.0000 0.0000
21:10 14.3 11.8 85 41 2.8 5 1014 0.0000 0.0000
21:20 14.3 11.8 85 43 2.2 3.9 1014.1 0.0000 0.0000
21:30 14.3 12 86 39 2.8 5 1014.1 0.0000 0.0000
21:40 14.3 12 86 40 2.2 3.9 1014.1 0.0000 0.0000
21:50 14.3 12 86 44 2.2 4.2 1014.1 0.0000 0.0000
22:00 14.3 12.2 87 39 2.2 3.9 1014.2 0.0000 0.0000
22:11 14.3 12.2 87 37 2.2 4.2 1014.2 0.0000 0.0000
22:20 14.3 12.2 87 39 3.1 5 1014.2 0.0000 0.0000
22:30 14.3 12.2 87 33 2.8 5 1014.2 0.0000 0.0000
22:41 14.3 12.2 87 29 2.8 5.3 1014.2 0.0000 0.0000
23:01 14.2 12.2 88 38 2.2 4.4 1014.2 0.0000 0.0000
23:11 14.2 12.2 88 45 2.2 4.2 1014.3 0.0000 0.0000
23:52 13.8 12.4 91 45 3.1 5.8 1014.2 0.3030

DAY STATISTIC

2020-09-29
TEMPERATURE
AVERAGE
14.6
HIGH
16.0
16:37
LOW
13.6
05:42
PRESSURE
AVERAGE
1012.9
HIGH
1014.3
23:11
LOW
1011.4
01:30
DEWPOINT
AVERAGE
12.6
HIGH
13.5
11:55
LOW
11.8
21:10
HUMIDITY
AVERAGE
88
HIGH
92
09:35
LOW
83
16:58
WIND SPEED
AVERAGE
2.6
HIGH
5.0
13:56
WIND GUST
AVERAGE
4.9
HIGH
9.2
15:27
WIND DIRECTION
PREVAILING
NE
83.7%
N
14.8
NE
83.7
E
0.0
SE
0.0
S
0.0
SW
0.0
W
0.0
NW
1.5
PRECIPITATION
RAIN HOUR
0.3
RAIN DAY
0.0
TEMPERATURE (°C)
LOW
13.6
HIGH
16.0
AVERAGE
14.6
PRESSURE (hpa)
LOW
1011.4
HIGH
1014.3
AVERAGE
1012.9
DEVICE